sensor_id;sensor_type;location;lat;lon;timestamp;pressure;altitude;pressure_sealevel;temperature;humidity
47753;BME280;2038;51.728;6.674;2023-03-05T00:00:45;101483.84;;;5.80;100.00
47753;BME280;2038;51.728;6.674;2023-03-05T00:03:11;101488.03;;;5.79;100.00
47753;BME280;2038;51.728;6.674;2023-03-05T00:05:37;101484.47;;;5.77;100.00
47753;BME280;2038;51.728;6.674;2023-03-05T00:08:03;101492.06;;;5.77;100.00
47753;BME280;2038;51.728;6.674;2023-03-05T00:10:30;101492.63;;;5.75;100.00
47753;BME280;2038;51.728;6.674;2023-03-05T00:12:56;101487.75;;;5.76;100.00
47753;BME280;2038;51.728;6.674;2023-03-05T00:15:22;101484.59;;;5.79;100.00
47753;BME280;2038;51.728;6.674;2023-03-05T00:17:48;101489.66;;;5.79;100.00
47753;BME280;2038;51.728;6.674;2023-03-05T00:20:15;101486.97;;;5.86;100.00
47753;BME280;2038;51.728;6.674;2023-03-05T00:22:41;101487.44;;;5.90;100.00
47753;BME280;2038;51.728;6.674;2023-03-05T00:25:07;101489.97;;;5.90;100.00
47753;BME280;2038;51.728;6.674;2023-03-05T00:27:34;101490.75;;;5.89;100.00
47753;BME280;2038;51.728;6.674;2023-03-05T00:30:00;101484.63;;;5.87;100.00
47753;BME280;2038;51.728;6.674;2023-03-05T00:32:26;101479.38;;;5.86;100.00
47753;BME280;2038;51.728;6.674;2023-03-05T00:34:52;101470.75;;;5.84;100.00
47753;BME280;2038;51.728;6.674;2023-03-05T00:37:19;101475.41;;;5.88;100.00
47753;BME280;2038;51.728;6.674;2023-03-05T00:39:45;101465.69;;;5.84;100.00
47753;BME280;2038;51.728;6.674;2023-03-05T00:42:11;101461.38;;;5.83;100.00
47753;BME280;2038;51.728;6.674;2023-03-05T00:44:37;101462.88;;;5.81;100.00
47753;BME280;2038;51.728;6.674;2023-03-05T00:47:03;101455.16;;;5.79;100.00
47753;BME280;2038;51.728;6.674;2023-03-05T00:49:30;101455.88;;;5.78;100.00
47753;BME280;2038;51.728;6.674;2023-03-05T00:51:56;101449.34;;;5.72;100.00
47753;BME280;2038;51.728;6.674;2023-03-05T00:54:22;101448.47;;;5.71;100.00
47753;BME280;2038;51.728;6.674;2023-03-05T00:56:48;101446.84;;;5.72;100.00
47753;BME280;2038;51.728;6.674;2023-03-05T00:59:15;101443.28;;;5.70;100.00
47753;BME280;2038;51.728;6.674;2023-03-05T01:01:41;101442.38;;;5.69;100.00
47753;BME280;2038;51.728;6.674;2023-03-05T01:04:07;101437.44;;;5.71;100.00
47753;BME280;2038;51.728;6.674;2023-03-05T01:06:34;101426.59;;;5.63;100.00
47753;BME280;2038;51.728;6.674;2023-03-05T01:09:00;101431.53;;;5.61;100.00
47753;BME280;2038;51.728;6.674;2023-03-05T01:11:27;101425.13;;;5.65;100.00
47753;BME280;2038;51.728;6.674;2023-03-05T01:13:53;101428.50;;;5.74;100.00
47753;BME280;2038;51.728;6.674;2023-03-05T01:16:19;101433.88;;;5.77;100.00
47753;BME280;2038;51.728;6.674;2023-03-05T01:18:45;101418.28;;;5.73;100.00
47753;BME280;2038;51.728;6.674;2023-03-05T01:21:12;101420.06;;;5.74;100.00
47753;BME280;2038;51.728;6.674;2023-03-05T01:23:38;101415.13;;;5.75;100.00
47753;BME280;2038;51.728;6.674;2023-03-05T01:26:05;101418.72;;;5.77;100.00
47753;BME280;2038;51.728;6.674;2023-03-05T01:28:33;101409.50;;;5.78;100.00
47753;BME280;2038;51.728;6.674;2023-03-05T01:31:00;101413.19;;;5.81;100.00
47753;BME280;2038;51.728;6.674;2023-03-05T01:33:26;101413.50;;;5.76;100.00
47753;BME280;2038;51.728;6.674;2023-03-05T01:35:52;101407.25;;;5.72;100.00
47753;BME280;2038;51.728;6.674;2023-03-05T01:38:19;101408.91;;;5.72;100.00
47753;BME280;2038;51.728;6.674;2023-03-05T01:40:45;101403.22;;;5.74;100.00
47753;BME280;2038;51.728;6.674;2023-03-05T01:45:39;101398.22;;;5.65;100.00
47753;BME280;2038;51.728;6.674;2023-03-05T01:48:46;101396.44;;;5.64;100.00
47753;BME280;2038;51.728;6.674;2023-03-05T01:51:18;101383.63;;;5.63;100.00
47753;BME280;2038;51.728;6.674;2023-03-05T01:53:48;101390.63;;;5.65;100.00
47753;BME280;2038;51.728;6.674;2023-03-05T01:56:14;101390.63;;;5.65;100.00
47753;BME280;2038;51.728;6.674;2023-03-05T01:58:41;101383.78;;;5.64;100.00
47753;BME280;2038;51.728;6.674;2023-03-05T02:01:09;101378.13;;;5.67;100.00
47753;BME280;2038;51.728;6.674;2023-03-05T02:03:36;101378.72;;;5.64;100.00
47753;BME280;2038;51.728;6.674;2023-03-05T02:06:03;101375.00;;;5.70;100.00
47753;BME280;2038;51.728;6.674;2023-03-05T02:08:30;101370.97;;;5.63;100.00
47753;BME280;2038;51.728;6.674;2023-03-05T02:10:56;101364.56;;;5.66;100.00
47753;BME280;2038;51.728;6.674;2023-03-05T02:13:25;101361.78;;;5.63;100.00
47753;BME280;2038;51.728;6.674;2023-03-05T02:15:55;101356.72;;;5.63;100.00
47753;BME280;2038;51.728;6.674;2023-03-05T02:18:24;101353.63;;;5.57;100.00
47753;BME280;2038;51.728;6.674;2023-03-05T02:23:29;101357.78;;;5.57;100.00
47753;BME280;2038;51.728;6.674;2023-03-05T02:26:02;101356.72;;;5.63;100.00
47753;BME280;2038;51.728;6.674;2023-03-05T02:31:23;101348.28;;;5.46;100.00
47753;BME280;2038;51.728;6.674;2023-03-05T02:33:51;101336.84;;;5.49;100.00
47753;BME280;2038;51.728;6.674;2023-03-05T02:36:19;101341.91;;;5.41;100.00
47753;BME280;2038;51.728;6.674;2023-03-05T02:38:46;101333.88;;;5.36;100.00
47753;BME280;2038;51.728;6.674;2023-03-05T02:41:13;101338.31;;;5.47;100.00
47753;BME280;2038;51.728;6.674;2023-03-05T02:43:40;101330.00;;;5.48;100.00
47753;BME280;2038;51.728;6.674;2023-03-05T02:46:07;101331.34;;;5.45;100.00
47753;BME280;2038;51.728;6.674;2023-03-05T02:48:33;101325.69;;;5.39;100.00
47753;BME280;2038;51.728;6.674;2023-03-05T02:51:01;101324.53;;;5.35;100.00
47753;BME280;2038;51.728;6.674;2023-03-05T02:53:28;101319.63;;;5.37;100.00
47753;BME280;2038;51.728;6.674;2023-03-05T02:55:54;101320.06;;;5.41;100.00
47753;BME280;2038;51.728;6.674;2023-03-05T02:58:20;101310.66;;;5.49;100.00
47753;BME280;2038;51.728;6.674;2023-03-05T03:00:46;101310.66;;;5.49;100.00
47753;BME280;2038;51.728;6.674;2023-03-05T03:03:13;101305.28;;;5.46;100.00
47753;BME280;2038;51.728;6.674;2023-03-05T03:05:39;101305.00;;;5.43;100.00
47753;BME280;2038;51.728;6.674;2023-03-05T03:08:06;101294.25;;;5.54;100.00
47753;BME280;2038;51.728;6.674;2023-03-05T03:10:33;101287.03;;;5.48;100.00
47753;BME280;2038;51.728;6.674;2023-03-05T03:12:59;101293.75;;;5.31;100.00
47753;BME280;2038;51.728;6.674;2023-03-05T03:15:26;101291.09;;;5.29;100.00
47753;BME280;2038;51.728;6.674;2023-03-05T03:17:53;101290.22;;;5.29;100.00
47753;BME280;2038;51.728;6.674;2023-03-05T03:20:20;101278.31;;;5.28;100.00
47753;BME280;2038;51.728;6.674;2023-03-05T03:22:47;101275.78;;;5.28;100.00
47753;BME280;2038;51.728;6.674;2023-03-05T03:25:18;101270.75;;;5.19;100.00
47753;BME280;2038;51.728;6.674;2023-03-05T03:27:46;101269.28;;;5.21;100.00
47753;BME280;2038;51.728;6.674;2023-03-05T03:30:13;101264.69;;;5.17;100.00
47753;BME280;2038;51.728;6.674;2023-03-05T03:32:40;101266.63;;;5.02;100.00
47753;BME280;2038;51.728;6.674;2023-03-05T03:35:07;101267.22;;;5.00;100.00
47753;BME280;2038;51.728;6.674;2023-03-05T03:37:34;101263.66;;;4.98;100.00
47753;BME280;2038;51.728;6.674;2023-03-05T03:40:00;101253.44;;;4.96;100.00
47753;BME280;2038;51.728;6.674;2023-03-05T03:42:26;101254.59;;;5.00;100.00
47753;BME280;2038;51.728;6.674;2023-03-05T03:44:53;101249.41;;;4.98;100.00
47753;BME280;2038;51.728;6.674;2023-03-05T03:47:19;101247.75;;;4.99;100.00
47753;BME280;2038;51.728;6.674;2023-03-05T03:49:45;101245.69;;;4.86;100.00
47753;BME280;2038;51.728;6.674;2023-03-05T03:52:11;101236.38;;;4.85;100.00
47753;BME280;2038;51.728;6.674;2023-03-05T03:54:38;101244.22;;;4.97;100.00
47753;BME280;2038;51.728;6.674;2023-03-05T03:57:04;101238.56;;;4.91;100.00
47753;BME280;2038;51.728;6.674;2023-03-05T03:59:30;101235.59;;;4.95;100.00
47753;BME280;2038;51.728;6.674;2023-03-05T04:01:57;101230.09;;;4.90;100.00
47753;BME280;2038;51.728;6.674;2023-03-05T04:04:23;101222.69;;;4.83;100.00
47753;BME280;2038;51.728;6.674;2023-03-05T04:06:51;101222.25;;;4.87;100.00
47753;BME280;2038;51.728;6.674;2023-03-05T04:09:17;101212.28;;;4.89;100.00
47753;BME280;2038;51.728;6.674;2023-03-05T04:11:43;101213.66;;;4.85;100.00
47753;BME280;2038;51.728;6.674;2023-03-05T04:14:09;101210.66;;;4.89;100.00
47753;BME280;2038;51.728;6.674;2023-03-05T04:16:36;101200.97;;;4.94;100.00
47753;BME280;2038;51.728;6.674;2023-03-05T04:19:02;101193.28;;;4.92;100.00
47753;BME280;2038;51.728;6.674;2023-03-05T04:21:28;101193.28;;;4.92;100.00
47753;BME280;2038;51.728;6.674;2023-03-05T04:23:54;101206.78;;;4.93;100.00
47753;BME280;2038;51.728;6.674;2023-03-05T04:26:20;101213.13;;;4.98;100.00
47753;BME280;2038;51.728;6.674;2023-03-05T04:28:47;101210.50;;;4.96;100.00
47753;BME280;2038;51.728;6.674;2023-03-05T04:31:14;101205.53;;;5.06;100.00
47753;BME280;2038;51.728;6.674;2023-03-05T04:33:40;101207.59;;;5.10;100.00
47753;BME280;2038;51.728;6.674;2023-03-05T04:36:06;101207.03;;;5.13;100.00
47753;BME280;2038;51.728;6.674;2023-03-05T04:38:33;101194.84;;;5.09;100.00
47753;BME280;2038;51.728;6.674;2023-03-05T04:40:59;101188.56;;;5.14;100.00
47753;BME280;2038;51.728;6.674;2023-03-05T04:43:25;101189.03;;;5.10;100.00
47753;BME280;2038;51.728;6.674;2023-03-05T04:45:53;101189.81;;;5.09;100.00
47753;BME280;2038;51.728;6.674;2023-03-05T04:48:19;101190.69;;;5.09;100.00
47753;BME280;2038;51.728;6.674;2023-03-05T04:50:46;101179.81;;;5.10;100.00
47753;BME280;2038;51.728;6.674;2023-03-05T04:53:12;101185.66;;;5.09;100.00
47753;BME280;2038;51.728;6.674;2023-03-05T04:55:38;101182.50;;;5.12;100.00
47753;BME280;2038;51.728;6.674;2023-03-05T04:58:04;101188.28;;;5.11;100.00
47753;BME280;2038;51.728;6.674;2023-03-05T05:00:31;101180.72;;;5.11;100.00
47753;BME280;2038;51.728;6.674;2023-03-05T05:02:57;101187.72;;;5.13;100.00
47753;BME280;2038;51.728;6.674;2023-03-05T05:05:28;101182.78;;;5.15;100.00
47753;BME280;2038;51.728;6.674;2023-03-05T05:07:57;101173.28;;;5.12;100.00
47753;BME280;2038;51.728;6.674;2023-03-05T05:10:25;101171.50;;;5.11;100.00
47753;BME280;2038;51.728;6.674;2023-03-05T05:12:51;101169.88;;;5.12;100.00
47753;BME280;2038;51.728;6.674;2023-03-05T05:15:17;101171.34;;;5.10;100.00
47753;BME280;2038;51.728;6.674;2023-03-05T05:17:44;101158.41;;;5.15;100.00
47753;BME280;2038;51.728;6.674;2023-03-05T05:20:12;101170.31;;;5.16;100.00
47753;BME280;2038;51.728;6.674;2023-03-05T05:22:39;101167.19;;;5.10;100.00
47753;BME280;2038;51.728;6.674;2023-03-05T05:25:06;101168.81;;;5.10;100.00
47753;BME280;2038;51.728;6.674;2023-03-05T05:27:33;101155.38;;;5.01;100.00
47753;BME280;2038;51.728;6.674;2023-03-05T05:30:00;101163.25;;;4.95;100.00
47753;BME280;2038;51.728;6.674;2023-03-05T05:32:26;101153.13;;;4.95;100.00
47753;BME280;2038;51.728;6.674;2023-03-05T05:34:57;101150.88;;;4.98;100.00
47753;BME280;2038;51.728;6.674;2023-03-05T05:37:24;101160.72;;;4.95;100.00
47753;BME280;2038;51.728;6.674;2023-03-05T05:39:51;101160.25;;;4.99;100.00
47753;BME280;2038;51.728;6.674;2023-03-05T05:42:18;101155.94;;;4.98;100.00
47753;BME280;2038;51.728;6.674;2023-03-05T05:44:45;101155.03;;;4.98;100.00
47753;BME280;2038;51.728;6.674;2023-03-05T05:47:13;101154.19;;;4.97;100.00
47753;BME280;2038;51.728;6.674;2023-03-05T05:49:40;101149.88;;;4.96;100.00
47753;BME280;2038;51.728;6.674;2023-03-05T05:52:07;101156.13;;;4.91;100.00
47753;BME280;2038;51.728;6.674;2023-03-05T05:54:33;101150.88;;;4.98;100.00
47753;BME280;2038;51.728;6.674;2023-03-05T05:57:00;101152.03;;;5.10;100.00
47753;BME280;2038;51.728;6.674;2023-03-05T05:59:26;101149.88;;;4.96;100.00
47753;BME280;2038;51.728;6.674;2023-03-05T06:01:52;101151.66;;;4.97;100.00
47753;BME280;2038;51.728;6.674;2023-03-05T06:04:19;101152.97;;;4.94;100.00
47753;BME280;2038;51.728;6.674;2023-03-05T06:06:45;101147.94;;;4.94;100.00
47753;BME280;2038;51.728;6.674;2023-03-05T06:09:11;101145.28;;;4.92;100.00
47753;BME280;2038;51.728;6.674;2023-03-05T06:11:38;101143.50;;;4.91;100.00
47753;BME280;2038;51.728;6.674;2023-03-05T06:14:04;101147.94;;;4.94;100.00
47753;BME280;2038;51.728;6.674;2023-03-05T06:16:32;101144.94;;;4.98;100.00
47753;BME280;2038;51.728;6.674;2023-03-05T06:18:59;101148.03;;;5.12;100.00
47753;BME280;2038;51.728;6.674;2023-03-05T06:21:29;101149.66;;;5.12;100.00
47753;BME280;2038;51.728;6.674;2023-03-05T06:23:56;101148.78;;;5.11;100.00
47753;BME280;2038;51.728;6.674;2023-03-05T06:26:23;101144.22;;;4.99;100.00
47753;BME280;2038;51.728;6.674;2023-03-05T06:28:50;101138.72;;;4.94;100.00
47753;BME280;2038;51.728;6.674;2023-03-05T06:31:19;101148.34;;;5.07;100.00
47753;BME280;2038;51.728;6.674;2023-03-05T06:33:48;101138.69;;;5.03;100.00
47753;BME280;2038;51.728;6.674;2023-03-05T06:36:16;101141.78;;;5.17;100.00
47753;BME280;2038;51.728;6.674;2023-03-05T06:38:44;101135.41;;;5.12;100.00
47753;BME280;2038;51.728;6.674;2023-03-05T06:41:13;101136.31;;;5.04;100.00
47753;BME280;2038;51.728;6.674;2023-03-05T06:43:43;101139.13;;;5.07;100.00
47753;BME280;2038;51.728;6.674;2023-03-05T06:48:49;101132.94;;;5.23;100.00
47753;BME280;2038;51.728;6.674;2023-03-05T06:51:29;101135.94;;;5.18;100.00
47753;BME280;2038;51.728;6.674;2023-03-05T06:54:00;101135.53;;;5.14;100.00
47753;BME280;2038;51.728;6.674;2023-03-05T06:56:28;101130.81;;;5.08;100.00
47753;BME280;2038;51.728;6.674;2023-03-05T06:58:55;101136.91;;;5.02;100.00
47753;BME280;2038;51.728;6.674;2023-03-05T07:01:21;101136.59;;;5.07;100.00
47753;BME280;2038;51.728;6.674;2023-03-05T07:03:50;101132.88;;;5.12;100.00
47753;BME280;2038;51.728;6.674;2023-03-05T07:06:20;101123.06;;;5.07;100.00
47753;BME280;2038;51.728;6.674;2023-03-05T07:08:47;101122.50;;;5.09;100.00
47753;BME280;2038;51.728;6.674;2023-03-05T07:11:16;101122.03;;;5.13;100.00
47753;BME280;2038;51.728;6.674;2023-03-05T07:13:45;101118.00;;;5.15;100.00
47753;BME280;2038;51.728;6.674;2023-03-05T07:16:32;101118.00;;;5.15;100.00
47753;BME280;2038;51.728;6.674;2023-03-05T07:19:01;101119.59;;;5.24;100.00
47753;BME280;2038;51.728;6.674;2023-03-05T07:21:30;101122.06;;;5.32;100.00
47753;BME280;2038;51.728;6.674;2023-03-05T07:23:59;101123.03;;;5.43;100.00
47753;BME280;2038;51.728;6.674;2023-03-05T07:26:27;101115.59;;;5.44;100.00
47753;BME280;2038;51.728;6.674;2023-03-05T07:28:54;101126.59;;;5.45;100.00
47753;BME280;2038;51.728;6.674;2023-03-05T07:31:23;101111.75;;;5.39;100.00
47753;BME280;2038;51.728;6.674;2023-03-05T07:33:56;101116.97;;;5.41;100.00
47753;BME280;2038;51.728;6.674;2023-03-05T07:36:24;101118.81;;;5.33;100.00
47753;BME280;2038;51.728;6.674;2023-03-05T07:38:50;101114.03;;;5.36;100.00
47753;BME280;2038;51.728;6.674;2023-03-05T07:41:17;101106.84;;;5.41;100.00
47753;BME280;2038;51.728;6.674;2023-03-05T07:43:46;101116.13;;;5.32;100.00
47753;BME280;2038;51.728;6.674;2023-03-05T07:46:15;101110.59;;;5.36;100.00
47753;BME280;2038;51.728;6.674;2023-03-05T07:48:43;101111.97;;;5.51;100.00
47753;BME280;2038;51.728;6.674;2023-03-05T07:51:16;101108.41;;;5.57;100.00
47753;BME280;2038;51.728;6.674;2023-03-05T07:53:44;101107.28;;;5.64;100.00
47753;BME280;2038;51.728;6.674;2023-03-05T07:56:12;101112.56;;;5.57;100.00
47753;BME280;2038;51.728;6.674;2023-03-05T07:58:39;101107.78;;;5.60;100.00
47753;BME280;2038;51.728;6.674;2023-03-05T08:01:10;101111.28;;;5.43;100.00
47753;BME280;2038;51.728;6.674;2023-03-05T08:03:39;101107.34;;;5.37;100.00
47753;BME280;2038;51.728;6.674;2023-03-05T08:06:07;101102.53;;;5.40;100.00
47753;BME280;2038;51.728;6.674;2023-03-05T08:08:35;101097.16;;;5.45;100.00
47753;BME280;2038;51.728;6.674;2023-03-05T08:11:10;101088.88;;;5.38;100.00
47753;BME280;2038;51.728;6.674;2023-03-05T08:13:39;101098.41;;;5.59;100.00
47753;BME280;2038;51.728;6.674;2023-03-05T08:16:08;101096.84;;;5.70;100.00
47753;BME280;2038;51.728;6.674;2023-03-05T08:18:37;101092.97;;;5.73;100.00
47753;BME280;2038;51.728;6.674;2023-03-05T08:21:04;101092.56;;;5.87;100.00
47753;BME280;2038;51.728;6.674;2023-03-05T08:23:30;101087.03;;;5.91;100.00
47753;BME280;2038;51.728;6.674;2023-03-05T08:25:59;101086.94;;;5.81;100.00
47753;BME280;2038;51.728;6.674;2023-03-05T08:28:25;101090.44;;;5.92;100.00
47753;BME280;2038;51.728;6.674;2023-03-05T08:30:51;101094.63;;;5.91;100.00
47753;BME280;2038;51.728;6.674;2023-03-05T08:33:18;101087.59;;;5.97;100.00
47753;BME280;2038;51.728;6.674;2023-03-05T08:35:44;101086.00;;;6.08;100.00
47753;BME280;2038;51.728;6.674;2023-03-05T08:38:10;101084.56;;;6.01;100.00
47753;BME280;2038;51.728;6.674;2023-03-05T08:40:36;101082.31;;;6.04;100.00
47753;BME280;2038;51.728;6.674;2023-03-05T08:43:03;101079.03;;;6.05;100.00
47753;BME280;2038;51.728;6.674;2023-03-05T08:45:30;101075.31;;;6.02;100.00
47753;BME280;2038;51.728;6.674;2023-03-05T08:47:57;101074.72;;;6.04;100.00
47753;BME280;2038;51.728;6.674;2023-03-05T08:50:23;101077.00;;;6.01;100.00
47753;BME280;2038;51.728;6.674;2023-03-05T08:52:50;101065.19;;;6.02;100.00
47753;BME280;2038;51.728;6.674;2023-03-05T08:55:17;101073.28;;;5.98;100.00
47753;BME280;2038;51.728;6.674;2023-03-05T08:57:43;101070.63;;;5.96;100.00
47753;BME280;2038;51.728;6.674;2023-03-05T09:00:10;101062.28;;;5.97;100.00
47753;BME280;2038;51.728;6.674;2023-03-05T09:02:37;101068.63;;;6.02;100.00
47753;BME280;2038;51.728;6.674;2023-03-05T09:05:03;101069.28;;;6.10;100.00
47753;BME280;2038;51.728;6.674;2023-03-05T09:07:30;101062.88;;;6.14;100.00
47753;BME280;2038;51.728;6.674;2023-03-05T09:09:56;101069.63;;;5.86;100.00
47753;BME280;2038;51.728;6.674;2023-03-05T09:12:22;101069.63;;;5.86;100.00
47753;BME280;2038;51.728;6.674;2023-03-05T09:14:48;101062.72;;;5.75;100.00
47753;BME280;2038;51.728;6.674;2023-03-05T09:17:15;101059.78;;;5.70;100.00
47753;BME280;2038;51.728;6.674;2023-03-05T09:19:41;101063.63;;;5.75;100.00
47753;BME280;2038;51.728;6.674;2023-03-05T09:22:07;101056.72;;;5.64;100.00
47753;BME280;2038;51.728;6.674;2023-03-05T09:24:33;101058.16;;;5.71;100.00
47753;BME280;2038;51.728;6.674;2023-03-05T09:27:00;101051.81;;;5.84;100.00
47753;BME280;2038;51.728;6.674;2023-03-05T09:29:26;101051.88;;;5.94;100.00
47753;BME280;2038;51.728;6.674;2023-03-05T09:31:53;101059.31;;;6.11;100.00
47753;BME280;2038;51.728;6.674;2023-03-05T09:34:19;101047.81;;;6.15;100.00
47753;BME280;2038;51.728;6.674;2023-03-05T09:36:46;101051.78;;;6.22;100.00
47753;BME280;2038;51.728;6.674;2023-03-05T09:39:13;101057.38;;;6.28;100.00
47753;BME280;2038;51.728;6.674;2023-03-05T09:42:03;101050.97;;;6.41;100.00
47753;BME280;2038;51.728;6.674;2023-03-05T09:45:20;101054.25;;;6.40;100.00
47753;BME280;2038;51.728;6.674;2023-03-05T09:48:18;101047.16;;;6.36;100.00
47753;BME280;2038;51.728;6.674;2023-03-05T09:51:16;101038.06;;;6.48;100.00
47753;BME280;2038;51.728;6.674;2023-03-05T09:54:01;101035.16;;;6.54;100.00
47753;BME280;2038;51.728;6.674;2023-03-05T09:56:38;101026.44;;;6.50;100.00
47753;BME280;2038;51.728;6.674;2023-03-05T09:59:42;101035.97;;;6.63;100.00
47753;BME280;2038;51.728;6.674;2023-03-05T10:02:35;101023.22;;;6.82;100.00
47753;BME280;2038;51.728;6.674;2023-03-05T10:05:28;101018.78;;;6.89;100.00
47753;BME280;2038;51.728;6.674;2023-03-05T10:08:18;101021.97;;;7.07;100.00
47753;BME280;2038;51.728;6.674;2023-03-05T10:10:52;101026.66;;;7.23;100.00
47753;BME280;2038;51.728;6.674;2023-03-05T10:13:23;101022.72;;;7.26;100.00
47753;BME280;2038;51.728;6.674;2023-03-05T10:21:30;101002.28;;;7.55;100.00
47753;BME280;2038;51.728;6.674;2023-03-05T10:24:10;101007.75;;;7.49;100.00
47753;BME280;2038;51.728;6.674;2023-03-05T10:29:57;100997.09;;;7.53;100.00
47753;BME280;2038;51.728;6.674;2023-03-05T10:35:44;100997.34;;;7.57;100.00
47753;BME280;2038;51.728;6.674;2023-03-05T10:42:12;100991.56;;;7.79;98.67
47753;BME280;2038;51.728;6.674;2023-03-05T10:44:55;100989.63;;;7.87;98.24
47753;BME280;2038;51.728;6.674;2023-03-05T10:47:29;100989.78;;;7.88;99.16
47753;BME280;2038;51.728;6.674;2023-03-05T10:50:22;100978.97;;;7.91;100.00
47753;BME280;2038;51.728;6.674;2023-03-05T10:55:51;100978.88;;;7.79;95.43
47753;BME280;2038;51.728;6.674;2023-03-05T10:58:22;100975.06;;;7.84;97.95
47753;BME280;2038;51.728;6.674;2023-03-05T11:06:12;100964.41;;;7.88;94.72
47753;BME280;2038;51.728;6.674;2023-03-05T11:08:40;100973.81;;;7.79;92.60
47753;BME280;2038;51.728;6.674;2023-03-05T11:11:10;100962.16;;;7.81;93.35
47753;BME280;2038;51.728;6.674;2023-03-05T11:14:01;100959.72;;;7.83;93.75
47753;BME280;2038;51.728;6.674;2023-03-05T11:16:31;100955.94;;;7.78;92.11
47753;BME280;2038;51.728;6.674;2023-03-05T11:22:03;100953.78;;;7.72;93.05
47753;BME280;2038;51.728;6.674;2023-03-05T11:27:43;100954.91;;;7.86;93.73
47753;BME280;2038;51.728;6.674;2023-03-05T11:30:27;100939.91;;;7.89;93.48
47753;BME280;2038;51.728;6.674;2023-03-05T11:33:14;100948.13;;;7.96;93.29
47753;BME280;2038;51.728;6.674;2023-03-05T11:35:44;100941.94;;;7.93;93.21
47753;BME280;2038;51.728;6.674;2023-03-05T11:38:23;100933.34;;;7.81;91.56
47753;BME280;2038;51.728;6.674;2023-03-05T11:40:52;100939.03;;;7.88;90.75
47753;BME280;2038;51.728;6.674;2023-03-05T11:43:24;100937.59;;;7.92;91.30
47753;BME280;2038;51.728;6.674;2023-03-05T11:45:53;100930.34;;;7.96;92.85
47753;BME280;2038;51.728;6.674;2023-03-05T11:48:33;100928.72;;;7.97;91.02
47753;BME280;2038;51.728;6.674;2023-03-05T11:51:07;100919.31;;;7.96;90.02
47753;BME280;2038;51.728;6.674;2023-03-05T11:53:43;100923.13;;;7.91;89.50
47753;BME280;2038;51.728;6.674;2023-03-05T11:56:23;100908.81;;;7.91;90.65
47753;BME280;2038;51.728;6.674;2023-03-05T11:59:10;100909.47;;;7.89;91.15
47753;BME280;2038;51.728;6.674;2023-03-05T12:01:45;100903.69;;;8.02;91.17
47753;BME280;2038;51.728;6.674;2023-03-05T12:04:16;100901.50;;;8.06;91.64
47753;BME280;2038;51.728;6.674;2023-03-05T12:06:50;100900.56;;;8.16;92.14
47753;BME280;2038;51.728;6.674;2023-03-05T12:09:33;100898.25;;;8.19;90.60
47753;BME280;2038;51.728;6.674;2023-03-05T12:19:06;100872.69;;;8.27;89.56
47753;BME280;2038;51.728;6.674;2023-03-05T12:21:32;100873.34;;;8.25;87.33
47753;BME280;2038;51.728;6.674;2023-03-05T12:24:20;100876.50;;;8.32;87.89
47753;BME280;2038;51.728;6.674;2023-03-05T12:31:56;100867.78;;;8.40;87.05
47753;BME280;2038;51.728;6.674;2023-03-05T12:37:13;100856.78;;;8.52;86.55
47753;BME280;2038;51.728;6.674;2023-03-05T12:39:49;100848.72;;;8.45;88.90
47753;BME280;2038;51.728;6.674;2023-03-05T12:42:43;100847.06;;;8.46;91.06
47753;BME280;2038;51.728;6.674;2023-03-05T12:47:47;100836.75;;;8.33;90.41
47753;BME280;2038;51.728;6.674;2023-03-05T12:58:41;100817.97;;;8.31;90.05
47753;BME280;2038;51.728;6.674;2023-03-05T13:01:31;100813.16;;;8.24;91.42
47753;BME280;2038;51.728;6.674;2023-03-05T13:04:18;100802.03;;;8.22;90.48
47753;BME280;2038;51.728;6.674;2023-03-05T13:07:05;100798.91;;;8.14;90.44
47753;BME280;2038;51.728;6.674;2023-03-05T13:09:39;100798.84;;;8.02;90.94
47753;BME280;2038;51.728;6.674;2023-03-05T13:12:11;100786.44;;;8.17;91.74
47753;BME280;2038;51.728;6.674;2023-03-05T13:14:46;100782.84;;;8.25;92.11
47753;BME280;2038;51.728;6.674;2023-03-05T13:17:34;100782.06;;;8.26;90.87
47753;BME280;2038;51.728;6.674;2023-03-05T13:20:28;100785.97;;;8.11;87.88
47753;BME280;2038;51.728;6.674;2023-03-05T13:23:15;100776.06;;;8.14;88.07
47753;BME280;2038;51.728;6.674;2023-03-05T13:31:32;100765.44;;;8.08;89.25
47753;BME280;2038;51.728;6.674;2023-03-05T13:34:13;100762.75;;;7.95;87.92
47753;BME280;2038;51.728;6.674;2023-03-05T13:37:01;100762.88;;;7.96;88.00
47753;BME280;2038;51.728;6.674;2023-03-05T13:39:34;100748.94;;;7.91;88.40
47753;BME280;2038;51.728;6.674;2023-03-05T13:42:14;100754.78;;;7.90;90.47
47753;BME280;2038;51.728;6.674;2023-03-05T13:44:51;100751.44;;;7.80;89.71
47753;BME280;2038;51.728;6.674;2023-03-05T13:47:22;100748.59;;;7.87;89.30
47753;BME280;2038;51.728;6.674;2023-03-05T13:50:00;100746.72;;;7.84;88.30
47753;BME280;2038;51.728;6.674;2023-03-05T13:52:33;100742.75;;;7.88;87.62
47753;BME280;2038;51.728;6.674;2023-03-05T13:55:03;100739.56;;;7.90;88.75
47753;BME280;2038;51.728;6.674;2023-03-05T13:57:38;100738.69;;;7.90;87.97
47753;BME280;2038;51.728;6.674;2023-03-05T14:00:32;100740.63;;;7.82;87.61
47753;BME280;2038;51.728;6.674;2023-03-05T14:03:08;100733.09;;;7.72;87.55
47753;BME280;2038;51.728;6.674;2023-03-05T14:05:36;100733.72;;;7.58;87.89
47753;BME280;2038;51.728;6.674;2023-03-05T14:08:22;100725.44;;;7.61;86.58
47753;BME280;2038;51.728;6.674;2023-03-05T14:10:52;100718.72;;;7.61;87.77
47753;BME280;2038;51.728;6.674;2023-03-05T14:13:22;100720.91;;;7.57;86.38
47753;BME280;2038;51.728;6.674;2023-03-05T14:16:11;100713.66;;;7.61;86.08
47753;BME280;2038;51.728;6.674;2023-03-05T14:18:55;100711.56;;;7.67;85.82
47753;BME280;2038;51.728;6.674;2023-03-05T14:21:23;100704.97;;;7.69;87.53
47753;BME280;2038;51.728;6.674;2023-03-05T14:23:52;100697.25;;;7.68;86.70
47753;BME280;2038;51.728;6.674;2023-03-05T14:26:31;100697.38;;;7.69;86.91
47753;BME280;2038;51.728;6.674;2023-03-05T14:29:14;100685.25;;;7.77;87.38
47753;BME280;2038;51.728;6.674;2023-03-05T14:34:32;100679.75;;;7.82;85.18